createdAt,value
2018-11-29T00:00:26.045Z,5.28
2018-11-29T00:01:26.034Z,5.26
2018-11-29T00:02:25.792Z,5.21
2018-11-29T00:03:26.036Z,5.23
2018-11-29T00:04:25.755Z,5.12
2018-11-29T00:05:25.757Z,5.17
2018-11-29T00:06:25.748Z,5.15
2018-11-29T00:07:25.989Z,5.12
2018-11-29T00:08:25.733Z,5.14
2018-11-29T00:09:25.736Z,5.11
2018-11-29T00:10:25.966Z,5.18
2018-11-29T00:11:25.695Z,5.23
2018-11-29T00:12:25.691Z,5.29
2018-11-29T00:13:25.692Z,5.21
2018-11-29T00:14:25.917Z,5.2
2018-11-29T00:15:25.916Z,5.3
2018-11-29T00:16:25.895Z,5.25
2018-11-29T00:17:25.894Z,5.29
2018-11-29T00:18:26.946Z,5.32
2018-11-29T00:19:25.638Z,5.39
2018-11-29T00:20:25.611Z,5.3
2018-11-29T00:21:25.613Z,5.36
2018-11-29T00:22:25.591Z,5.3
2018-11-29T00:23:25.591Z,5.26
2018-11-29T00:24:25.836Z,5.3
2018-11-29T00:25:25.574Z,5.28
2018-11-29T00:26:25.568Z,5.23
2018-11-29T00:27:25.810Z,5.14
2018-11-29T00:28:25.554Z,5.2
2018-11-29T00:29:25.528Z,5.15
2018-11-29T00:30:25.524Z,5.2
2018-11-29T00:31:25.768Z,5.29
2018-11-29T00:32:25.519Z,5.28
2018-11-29T00:33:25.512Z,5.25
2018-11-29T00:34:25.485Z,5.26
2018-11-29T00:35:25.474Z,5.3
2018-11-29T00:36:25.702Z,5.29
2018-11-29T00:37:25.699Z,5.38
2018-11-29T00:38:25.452Z,5.41
2018-11-29T00:39:25.684Z,5.41
2018-11-29T00:40:25.435Z,5.39
2018-11-29T00:41:25.684Z,5.39
2018-11-29T00:42:25.433Z,5.53
2018-11-29T00:43:25.653Z,5.5
2018-11-29T00:44:25.635Z,5.46
2018-11-29T00:45:25.190Z,5.41
2018-11-29T00:46:25.624Z,5.36
2018-11-29T00:47:25.633Z,5.38
2018-11-29T00:48:25.628Z,5.41
2018-11-29T00:49:25.613Z,5.41
2018-11-29T00:50:25.618Z,5.36
2018-11-29T00:51:25.574Z,5.38
2018-11-29T00:52:25.647Z,5.44
2018-11-29T00:53:25.079Z,5.35
2018-11-29T00:54:25.567Z,5.41
2018-11-29T00:55:25.316Z,5.36
2018-11-29T00:56:25.296Z,5.43
2018-11-29T00:57:25.524Z,5.44
2018-11-29T00:58:25.035Z,5.51
2018-11-29T00:59:25.511Z,5.47
2018-11-29T01:00:25.504Z,5.48
2018-11-29T01:01:25.250Z,5.44
2018-11-29T01:02:25.487Z,5.47
2018-11-29T01:03:25.471Z,5.56
2018-11-29T01:04:25.248Z,5.51
2018-11-29T01:05:25.498Z,5.54
2018-11-29T01:06:25.204Z,5.59
2018-11-29T01:07:25.470Z,5.54
2018-11-29T01:08:25.183Z,5.48
2018-11-29T01:09:25.187Z,5.48
2018-11-29T01:10:25.177Z,5.51
2018-11-29T01:11:25.168Z,5.51
2018-11-29T01:12:25.392Z,5.54
2018-11-29T01:13:25.140Z,5.53
2018-11-29T01:14:25.131Z,5.46
2018-11-29T01:15:25.155Z,5.48
2018-11-29T01:16:25.118Z,5.51
2018-11-29T01:17:25.157Z,5.48
2018-11-29T01:18:25.117Z,5.53
2018-11-29T01:19:26.293Z,5.46
2018-11-29T01:20:25.092Z,5.46
2018-11-29T01:21:25.080Z,5.44
2018-11-29T01:22:25.070Z,5.46
2018-11-29T01:23:25.299Z,5.46
2018-11-29T01:24:24.795Z,5.56
2018-11-29T01:25:25.044Z,5.46
2018-11-29T01:26:25.281Z,5.54
2018-11-29T01:27:25.018Z,5.51
2018-11-29T01:28:25.027Z,5.53
2018-11-29T01:29:25.008Z,5.59
2018-11-29T01:30:24.985Z,5.64
2018-11-29T01:31:25.222Z,5.57
2018-11-29T01:32:25.221Z,5.5
2018-11-29T01:33:25.210Z,5.56
2018-11-29T01:34:24.963Z,5.59
2018-11-29T01:35:25.192Z,5.56
2018-11-29T01:36:25.185Z,5.48
2018-11-29T01:37:24.935Z,5.56
2018-11-29T01:38:25.195Z,5.57
2018-11-29T01:39:25.165Z,5.57
2018-11-29T01:40:25.161Z,5.41
2018-11-29T01:41:24.913Z,5.47
2018-11-29T01:42:24.678Z,5.38
2018-11-29T01:43:24.889Z,5.41
2018-11-29T01:44:25.121Z,5.38
2018-11-29T01:45:25.112Z,5.41
2018-11-29T01:46:24.853Z,5.32
2018-11-29T01:47:25.090Z,5.36
2018-11-29T01:48:24.581Z,5.38
2018-11-29T01:49:28.271Z,5.41
2018-11-29T01:50:24.824Z,5.39
2018-11-29T01:51:25.061Z,5.36
2018-11-29T01:52:25.045Z,5.33
2018-11-29T01:53:24.548Z,5.39
2018-11-29T01:54:24.776Z,5.38
2018-11-29T01:55:25.021Z,5.39
2018-11-29T01:56:25.013Z,5.41
2018-11-29T01:57:25.002Z,5.28
2018-11-29T01:58:24.502Z,5.32
2018-11-29T01:59:24.990Z,5.3
2018-11-29T02:00:24.983Z,5.35
2018-11-29T02:01:24.980Z,5.21
2018-11-29T02:02:25.089Z,5.25
2018-11-29T02:03:24.960Z,5.25
2018-11-29T02:04:24.941Z,5.25
2018-11-29T02:05:24.949Z,5.3
2018-11-29T02:06:24.926Z,5.21
2018-11-29T02:07:24.667Z,5.3
2018-11-29T02:08:24.918Z,5.28
2018-11-29T02:09:24.991Z,5.28
2018-11-29T02:10:24.991Z,5.28
2018-11-29T02:11:24.887Z,5.29
2018-11-29T02:12:24.904Z,5.33
2018-11-29T02:13:24.869Z,5.28
2018-11-29T02:14:24.633Z,5.3
2018-11-29T02:15:24.873Z,5.25
2018-11-29T02:16:24.348Z,5.3
2018-11-29T02:17:24.832Z,5.23
2018-11-29T02:18:24.577Z,5.35
2018-11-29T02:19:24.814Z,5.36
2018-11-29T02:20:24.952Z,5.29
2018-11-29T02:21:24.795Z,5.29
2018-11-29T02:22:24.556Z,5.33
2018-11-29T02:23:24.535Z,5.35
2018-11-29T02:24:24.773Z,5.33
2018-11-29T02:25:24.518Z,5.28
2018-11-29T02:26:24.512Z,5.28
2018-11-29T02:27:24.731Z,5.28
2018-11-29T02:28:24.249Z,5.25
2018-11-29T02:29:24.481Z,5.29
2018-11-29T02:30:24.731Z,5.28
2018-11-29T02:31:24.737Z,5.21
2018-11-29T02:32:24.738Z,5.28
2018-11-29T02:33:24.698Z,5.21
2018-11-29T02:34:24.451Z,5.23
2018-11-29T02:35:24.718Z,5.28
2018-11-29T02:36:24.671Z,5.25
2018-11-29T02:37:24.401Z,5.29
2018-11-29T02:38:24.654Z,5.29
2018-11-29T02:39:24.721Z,5.28
2018-11-29T02:40:24.134Z,5.18
2018-11-29T02:41:24.369Z,5.12
2018-11-29T02:42:24.355Z,5.14
2018-11-29T02:43:24.357Z,5.11
2018-11-29T02:44:24.336Z,5.1
2018-11-29T02:45:24.325Z,5.11
2018-11-29T02:46:24.069Z,5.11
2018-11-29T02:47:24.321Z,5.08
2018-11-29T02:48:24.576Z,5
2018-11-29T02:49:24.319Z,5.04
2018-11-29T02:50:24.289Z,5.02
2018-11-29T02:51:24.281Z,5.02
2018-11-29T02:52:24.635Z,5.08
2018-11-29T02:53:24.279Z,5.07
2018-11-29T02:54:24.499Z,5.07
2018-11-29T02:55:24.302Z,4.97
2018-11-29T02:56:24.244Z,5.02
2018-11-29T02:57:24.472Z,4.96
2018-11-29T02:58:24.210Z,4.94
2018-11-29T02:59:24.451Z,4.89
2018-11-29T03:00:24.225Z,4.87
2018-11-29T03:01:24.435Z,4.8
2018-11-29T03:02:23.965Z,4.77
2018-11-29T03:03:24.180Z,4.86
2018-11-29T03:04:24.409Z,4.97
2018-11-29T03:05:24.406Z,4.92
2018-11-29T03:06:24.153Z,4.96
2018-11-29T03:07:24.140Z,5
2018-11-29T03:08:24.132Z,5.04
2018-11-29T03:09:24.382Z,4.94
2018-11-29T03:10:24.357Z,4.94
2018-11-29T03:11:24.336Z,4.8
2018-11-29T03:12:24.338Z,4.8
2018-11-29T03:13:23.867Z,4.96
2018-11-29T03:14:24.103Z,4.89
2018-11-29T03:15:24.089Z,4.9
2018-11-29T03:16:24.319Z,4.86
2018-11-29T03:17:24.314Z,4.84
2018-11-29T03:18:24.280Z,4.87
2018-11-29T03:19:24.037Z,4.84
2018-11-29T03:20:24.060Z,4.86
2018-11-29T03:21:24.047Z,4.87
2018-11-29T03:22:24.247Z,4.87
2018-11-29T03:23:23.756Z,4.78
2018-11-29T03:24:24.259Z,4.77
2018-11-29T03:25:23.982Z,4.78
2018-11-29T03:26:24.238Z,4.77
2018-11-29T03:27:23.983Z,4.78
2018-11-29T03:28:23.956Z,4.8
2018-11-29T03:29:23.965Z,4.67
2018-11-29T03:30:24.182Z,4.71
2018-11-29T03:31:24.205Z,4.71
2018-11-29T03:32:24.205Z,4.63
2018-11-29T03:33:24.167Z,4.66
2018-11-29T03:34:24.143Z,4.63
2018-11-29T03:35:23.885Z,4.66
2018-11-29T03:36:23.975Z,4.59
2018-11-29T03:37:23.854Z,4.56
2018-11-29T03:38:24.111Z,4.59
2018-11-29T03:39:23.849Z,4.58
2018-11-29T03:40:23.574Z,4.55
2018-11-29T03:41:24.092Z,4.5
2018-11-29T03:42:24.079Z,4.58
2018-11-29T03:43:24.078Z,4.49
2018-11-29T03:44:23.816Z,4.53
2018-11-29T03:45:23.801Z,4.49
2018-11-29T03:46:23.817Z,4.6
2018-11-29T03:47:24.051Z,4.62
2018-11-29T03:48:24.038Z,4.56
2018-11-29T03:49:24.038Z,4.55
2018-11-29T03:50:23.484Z,4.5
2018-11-29T03:51:23.739Z,4.59
2018-11-29T03:52:23.725Z,4.53
2018-11-29T03:53:23.996Z,4.58
2018-11-29T03:54:23.968Z,4.5
2018-11-29T03:55:23.458Z,4.49
2018-11-29T03:56:23.689Z,4.55
2018-11-29T03:57:23.928Z,4.52
2018-11-29T03:58:23.663Z,4.52
2018-11-29T03:59:23.915Z,4.48
2018-11-29T04:00:23.651Z,4.5
2018-11-29T04:01:23.903Z,4.53
2018-11-29T04:02:23.380Z,4.52
2018-11-29T04:03:23.628Z,4.55
2018-11-29T04:04:23.601Z,4.55
2018-11-29T04:05:23.595Z,4.53
2018-11-29T04:06:23.851Z,4.56
2018-11-29T04:07:23.843Z,4.55
2018-11-29T04:08:23.316Z,4.49
2018-11-29T04:09:23.558Z,4.5
2018-11-29T04:10:23.551Z,4.56
2018-11-29T04:11:23.530Z,4.49
2018-11-29T04:12:23.542Z,4.49
2018-11-29T04:13:23.533Z,4.41
2018-11-29T04:14:23.785Z,4.48
2018-11-29T04:15:23.255Z,4.44
2018-11-29T04:16:23.756Z,4.44
2018-11-29T04:17:23.492Z,4.35
2018-11-29T04:18:23.476Z,4.35
2018-11-29T04:19:23.494Z,4.41
2018-11-29T04:20:23.709Z,4.37
2018-11-29T04:21:23.440Z,4.41
2018-11-29T04:22:23.445Z,4.34
2018-11-29T04:23:23.432Z,4.34
2018-11-29T04:24:23.662Z,4.28
2018-11-29T04:25:23.411Z,4.24
2018-11-29T04:26:24.197Z,4.23
2018-11-29T04:27:23.698Z,4.23
2018-11-29T04:28:23.631Z,4.12
2018-11-29T04:29:23.625Z,4.22
2018-11-29T04:30:23.654Z,4.26
2018-11-29T04:31:23.349Z,4.22
2018-11-29T04:32:23.583Z,4.24
2018-11-29T04:33:23.328Z,4.08
2018-11-29T04:34:23.317Z,4.2
2018-11-29T04:35:23.569Z,4.13
2018-11-29T04:36:23.643Z,4.04
2018-11-29T04:37:23.302Z,4.1
2018-11-29T04:38:23.027Z,4.02
2018-11-29T04:39:23.520Z,4.01
2018-11-29T04:40:23.513Z,3.99
2018-11-29T04:41:23.249Z,4.02
2018-11-29T04:42:23.262Z,3.98
2018-11-29T04:43:23.517Z,4.04
2018-11-29T04:44:22.990Z,3.99
2018-11-29T04:45:23.492Z,3.98
2018-11-29T04:46:23.450Z,3.96
2018-11-29T04:47:23.442Z,3.95
2018-11-29T04:48:23.431Z,3.95
2018-11-29T04:49:23.569Z,3.88
2018-11-29T04:50:23.407Z,3.81
2018-11-29T04:51:25.060Z,3.87
2018-11-29T04:52:23.139Z,3.84
2018-11-29T04:53:23.143Z,3.88
2018-11-29T04:54:23.137Z,3.81
2018-11-29T04:55:23.350Z,3.8
2018-11-29T04:56:23.098Z,3.87
2018-11-29T04:57:23.095Z,3.86
2018-11-29T04:58:23.337Z,3.86
2018-11-29T04:59:23.330Z,3.74
2018-11-29T05:00:23.102Z,3.78
2018-11-29T05:01:23.093Z,3.86
2018-11-29T05:02:23.313Z,3.86
2018-11-29T05:03:23.036Z,3.78
2018-11-29T05:04:23.037Z,3.8
2018-11-29T05:05:23.269Z,3.74
2018-11-29T05:06:23.021Z,3.74
2018-11-29T05:07:23.248Z,3.69
2018-11-29T05:08:23.237Z,3.62
2018-11-29T05:09:23.248Z,3.76
2018-11-29T05:10:23.231Z,3.66
2018-11-29T05:11:22.988Z,3.68
2018-11-29T05:12:22.957Z,3.68
2018-11-29T05:13:22.935Z,3.62
2018-11-29T05:14:23.212Z,3.59
2018-11-29T05:15:22.912Z,3.62
2018-11-29T05:16:22.905Z,3.56
2018-11-29T05:17:23.147Z,3.5
2018-11-29T05:18:23.230Z,3.55
2018-11-29T05:19:23.121Z,3.47
2018-11-29T05:20:22.619Z,3.48
2018-11-29T05:21:23.102Z,3.56
2018-11-29T05:22:23.099Z,3.48
2018-11-29T05:23:23.090Z,3.58
2018-11-29T05:24:23.073Z,3.56
2018-11-29T05:25:23.069Z,3.58
2018-11-29T05:26:22.846Z,3.56
2018-11-29T05:27:22.789Z,3.6
2018-11-29T05:28:23.034Z,3.56
2018-11-29T05:29:22.785Z,3.58
2018-11-29T05:30:22.517Z,3.58
2018-11-29T05:31:22.754Z,3.45
2018-11-29T05:32:22.740Z,3.51
2018-11-29T05:33:22.729Z,3.59
2018-11-29T05:34:22.476Z,3.5
2018-11-29T05:35:22.477Z,3.53
2018-11-29T05:36:22.708Z,3.62
2018-11-29T05:37:22.446Z,3.51
2018-11-29T05:38:22.701Z,3.48
2018-11-29T05:39:22.438Z,3.47
2018-11-29T05:40:22.919Z,3.45
2018-11-29T05:41:22.647Z,3.45
2018-11-29T05:42:22.902Z,3.55
2018-11-29T05:43:22.630Z,3.48
2018-11-29T05:44:22.650Z,3.45
2018-11-29T05:45:22.853Z,3.41
2018-11-29T05:46:22.604Z,3.47
2018-11-29T05:47:22.838Z,3.42
2018-11-29T05:48:22.590Z,3.44
2018-11-29T05:49:22.342Z,3.37
2018-11-29T05:50:22.811Z,3.47
2018-11-29T05:51:22.793Z,3.47
2018-11-29T05:52:22.534Z,3.41
2018-11-29T05:53:22.283Z,3.4
2018-11-29T05:54:22.760Z,3.34
2018-11-29T05:55:22.510Z,3.23
2018-11-29T05:56:22.498Z,3.29
2018-11-29T05:57:22.482Z,3.4
2018-11-29T05:58:22.497Z,3.44
2018-11-29T05:59:22.486Z,3.44
2018-11-29T06:00:22.697Z,3.45
2018-11-29T06:01:22.690Z,3.63
2018-11-29T06:02:22.435Z,3.55
2018-11-29T06:03:22.180Z,3.65
2018-11-29T06:04:22.450Z,3.59
2018-11-29T06:05:22.428Z,3.62
2018-11-29T06:06:22.432Z,3.62
2018-11-29T06:07:22.402Z,3.59
2018-11-29T06:08:22.122Z,3.47
2018-11-29T06:09:22.631Z,3.58
2018-11-29T06:10:22.106Z,3.47
2018-11-29T06:11:22.585Z,3.56
2018-11-29T06:12:22.586Z,3.36
2018-11-29T06:13:22.564Z,3.44
2018-11-29T06:14:22.068Z,3.5
2018-11-29T06:15:22.321Z,3.45
2018-11-29T06:16:22.297Z,3.47
2018-11-29T06:17:22.272Z,3.44
2018-11-29T06:18:22.287Z,3.44
2018-11-29T06:19:22.536Z,3.5
2018-11-29T06:20:22.518Z,3.4
2018-11-29T06:21:22.021Z,3.4
2018-11-29T06:22:22.495Z,3.37
2018-11-29T06:23:22.215Z,3.32
2018-11-29T06:24:22.496Z,3.42
2018-11-29T06:25:22.450Z,3.41
2018-11-29T06:26:22.193Z,3.45
2018-11-29T06:27:22.176Z,3.45
2018-11-29T06:28:22.421Z,3.47
2018-11-29T06:29:22.181Z,3.5
2018-11-29T06:30:22.407Z,3.48
2018-11-29T06:31:22.385Z,3.44
2018-11-29T06:32:22.409Z,3.5
2018-11-29T06:33:22.116Z,3.47
2018-11-29T06:34:22.362Z,3.55
2018-11-29T06:35:22.356Z,3.58
2018-11-29T06:36:22.330Z,3.48
2018-11-29T06:37:22.905Z,3.48
2018-11-29T06:38:22.068Z,3.51
2018-11-29T06:39:22.086Z,3.53
2018-11-29T06:40:22.327Z,3.56
2018-11-29T06:41:22.291Z,3.48
2018-11-29T06:42:22.036Z,3.48
2018-11-29T06:43:22.266Z,3.47
2018-11-29T06:44:22.244Z,3.5
2018-11-29T06:45:22.246Z,3.62
2018-11-29T06:46:22.011Z,3.59
2018-11-29T06:47:22.221Z,3.62
2018-11-29T06:48:22.205Z,3.56
2018-11-29T06:49:21.715Z,3.51
2018-11-29T06:50:21.972Z,3.48
2018-11-29T06:51:22.192Z,3.45
2018-11-29T06:52:21.957Z,3.48
2018-11-29T06:53:22.168Z,3.44
2018-11-29T06:54:21.913Z,3.42
2018-11-29T06:55:22.138Z,3.34
2018-11-29T06:56:22.119Z,3.4
2018-11-29T06:57:21.925Z,3.44
2018-11-29T06:58:21.850Z,3.4
2018-11-29T06:59:21.869Z,3.36
2018-11-29T07:00:22.088Z,3.36
2018-11-29T07:01:22.083Z,3.36
2018-11-29T07:02:21.836Z,3.45
2018-11-29T07:03:21.815Z,3.42
2018-11-29T07:04:22.064Z,3.56
2018-11-29T07:05:22.022Z,3.48
2018-11-29T07:06:22.026Z,3.6
2018-11-29T07:07:22.011Z,3.62
2018-11-29T07:08:22.023Z,3.6
2018-11-29T07:09:22.793Z,3.65
2018-11-29T07:10:22.001Z,3.7
2018-11-29T07:11:21.975Z,3.65
2018-11-29T07:12:21.970Z,3.66
2018-11-29T07:13:21.981Z,3.73
2018-11-29T07:14:21.689Z,3.73
2018-11-29T07:15:21.940Z,3.77
2018-11-29T07:16:21.684Z,3.84
2018-11-29T07:17:21.669Z,3.83
2018-11-29T07:18:21.927Z,3.84
2018-11-29T07:19:21.924Z,3.83
2018-11-29T07:20:21.624Z,3.83
2018-11-29T07:21:21.894Z,4.08
2018-11-29T07:22:21.617Z,4.32
2018-11-29T07:23:21.861Z,4.4
2018-11-29T07:24:21.855Z,4.56
2018-11-29T07:25:21.570Z,4.48
2018-11-29T07:26:21.554Z,4.49
2018-11-29T07:27:21.556Z,4.53
2018-11-29T07:28:21.793Z,4.42
2018-11-29T07:29:22.006Z,4.45
2018-11-29T07:30:21.545Z,4.35
2018-11-29T07:31:21.279Z,4.31
2018-11-29T07:32:21.781Z,4.4
2018-11-29T07:33:21.755Z,4.35
2018-11-29T07:34:21.506Z,4.38
2018-11-29T07:35:21.503Z,4.38
2018-11-29T07:36:21.733Z,4.4
2018-11-29T07:37:22.266Z,4.37
2018-11-29T07:38:21.703Z,4.45
2018-11-29T07:39:21.697Z,4.42
2018-11-29T07:40:21.429Z,4.44
2018-11-29T07:41:21.430Z,4.49
2018-11-29T07:42:21.416Z,4.5
2018-11-29T07:43:21.671Z,4.58
2018-11-29T07:44:21.391Z,4.48
2018-11-29T07:45:21.139Z,4.52
2018-11-29T07:46:22.140Z,4.5
2018-11-29T07:47:21.359Z,4.63
2018-11-29T07:48:21.341Z,4.63
2018-11-29T07:49:21.601Z,4.7
2018-11-29T07:50:21.577Z,4.73
2018-11-29T07:51:21.598Z,4.7
2018-11-29T07:52:21.572Z,4.73
2018-11-29T07:53:21.575Z,4.75
2018-11-29T07:54:21.559Z,4.84
2018-11-29T07:55:21.547Z,4.86
2018-11-29T07:56:21.537Z,4.84
2018-11-29T07:57:21.271Z,4.94
2018-11-29T07:58:21.518Z,4.9
2018-11-29T07:59:21.499Z,4.93
2018-11-29T08:00:21.490Z,4.97
2018-11-29T08:01:21.488Z,5.02
2018-11-29T08:02:21.484Z,5
2018-11-29T08:03:21.471Z,5.1
2018-11-29T08:04:21.222Z,5.08
2018-11-29T08:05:21.509Z,5.1
2018-11-29T08:06:21.437Z,5.15
2018-11-29T08:07:21.433Z,5.07
2018-11-29T08:08:21.435Z,5.15
2018-11-29T08:09:20.917Z,5.12
2018-11-29T08:10:21.398Z,5.29
2018-11-29T08:11:21.387Z,5.21
2018-11-29T08:12:21.391Z,5.25
2018-11-29T08:13:21.379Z,5.29
2018-11-29T08:14:21.373Z,5.35
2018-11-29T08:15:21.123Z,5.32
2018-11-29T08:16:21.112Z,5.39
2018-11-29T08:17:21.125Z,5.53
2018-11-29T08:18:20.848Z,5.47
2018-11-29T08:19:21.335Z,5.57
2018-11-29T08:20:21.093Z,5.51
2018-11-29T08:21:21.093Z,5.57
2018-11-29T08:22:21.911Z,5.62
2018-11-29T08:23:21.443Z,5.65
2018-11-29T08:24:21.287Z,5.82
2018-11-29T08:25:21.298Z,5.86
2018-11-29T08:26:21.278Z,5.91
2018-11-29T08:27:21.023Z,5.99
2018-11-29T08:28:21.252Z,6.12
2018-11-29T08:29:21.018Z,6.12
2018-11-29T08:30:20.992Z,6.19
2018-11-29T08:31:20.733Z,6.26
2018-11-29T08:32:20.972Z,6.28
2018-11-29T08:33:20.967Z,6.35
2018-11-29T08:34:20.958Z,6.35
2018-11-29T08:35:20.966Z,6.48
2018-11-29T08:36:20.936Z,6.46
2018-11-29T08:37:20.927Z,6.63
2018-11-29T08:38:20.923Z,6.75
2018-11-29T08:39:20.678Z,6.77
2018-11-29T08:40:20.678Z,6.77
2018-11-29T08:41:20.655Z,6.84
2018-11-29T08:42:21.140Z,6.74
2018-11-29T08:43:20.906Z,6.75
2018-11-29T08:44:20.880Z,6.69
2018-11-29T08:45:20.879Z,6.88
2018-11-29T08:46:20.620Z,6.82
2018-11-29T08:47:20.863Z,6.77
2018-11-29T08:48:20.848Z,6.81
2018-11-29T08:49:21.276Z,6.87
2018-11-29T08:50:21.468Z,6.72
2018-11-29T08:51:20.832Z,6.85
2018-11-29T08:52:20.823Z,6.87
2018-11-29T08:53:21.101Z,6.89
2018-11-29T08:54:20.814Z,6.89
2018-11-29T08:55:20.824Z,6.92
2018-11-29T08:56:20.814Z,6.93
2018-11-29T08:57:20.789Z,6.92
2018-11-29T08:58:20.781Z,6.89
2018-11-29T08:59:21.045Z,6.95
2018-11-29T09:00:20.782Z,6.93
2018-11-29T09:01:20.502Z,6.92
2018-11-29T09:02:20.496Z,6.96
2018-11-29T09:03:21.003Z,6.89
2018-11-29T09:04:20.734Z,6.92
2018-11-29T09:05:21.318Z,6.95
2018-11-29T09:06:20.723Z,6.84
2018-11-29T09:07:20.712Z,6.89
2018-11-29T09:08:20.709Z,7.03
2018-11-29T09:09:20.695Z,7.11
2018-11-29T09:10:20.931Z,7.07
2018-11-29T09:11:20.924Z,7.13
2018-11-29T09:12:20.421Z,7.15
2018-11-29T09:13:20.674Z,7.24
2018-11-29T09:14:20.951Z,7.23
2018-11-29T09:15:20.659Z,7.29
2018-11-29T09:16:20.888Z,7.29
2018-11-29T09:17:20.642Z,7.18
2018-11-29T09:18:20.883Z,7.2
2018-11-29T09:19:20.611Z,7.17
2018-11-29T09:20:20.617Z,7.13
2018-11-29T09:21:20.618Z,7.1
2018-11-29T09:22:20.616Z,7.15
2018-11-29T09:23:20.863Z,7.14
2018-11-29T09:24:20.827Z,7.15
2018-11-29T09:25:20.827Z,7.2
2018-11-29T09:26:20.587Z,7.2
2018-11-29T09:27:20.803Z,7.15
2018-11-29T09:28:20.566Z,7.28
2018-11-29T09:29:20.817Z,7.25
2018-11-29T09:30:20.558Z,7.33
2018-11-29T09:31:20.775Z,7.38
2018-11-29T09:32:20.538Z,7.38
2018-11-29T09:33:20.516Z,7.32
2018-11-29T09:34:20.511Z,7.38
2018-11-29T09:35:20.245Z,7.51
2018-11-29T09:36:21.861Z,7.47
2018-11-29T09:37:20.499Z,7.51
2018-11-29T09:38:20.725Z,7.56
2018-11-29T09:39:20.718Z,7.58
2018-11-29T09:40:20.208Z,7.58
2018-11-29T09:41:20.451Z,7.72
2018-11-29T09:42:20.450Z,7.77
2018-11-29T09:43:20.429Z,7.8
2018-11-29T09:44:20.422Z,7.88
2018-11-29T09:45:20.665Z,7.88
2018-11-29T09:46:20.662Z,7.97
2018-11-29T09:47:20.426Z,7.95
2018-11-29T09:48:20.679Z,7.98
2018-11-29T09:49:20.715Z,8.03
2018-11-29T09:50:20.660Z,8.01
2018-11-29T09:51:20.382Z,8.06
2018-11-29T09:52:20.649Z,8.15
2018-11-29T09:53:20.622Z,8.16
2018-11-29T09:54:20.444Z,8.24
2018-11-29T09:55:20.770Z,8.28
2018-11-29T09:56:20.354Z,8.37
2018-11-29T09:57:20.605Z,8.37
2018-11-29T09:58:20.602Z,8.42
2018-11-29T09:59:20.579Z,8.46
2018-11-29T10:00:27.028Z,8.56
2018-11-29T10:01:20.361Z,8.6
2018-11-29T10:02:20.656Z,8.55
2018-11-29T10:03:20.340Z,8.71
2018-11-29T10:04:20.547Z,8.7
2018-11-29T10:05:20.305Z,8.82
2018-11-29T10:06:20.276Z,8.85
2018-11-29T10:07:20.530Z,8.85
2018-11-29T10:08:26.003Z,8.89
2018-11-29T10:09:20.514Z,8.87
2018-11-29T10:10:20.007Z,8.94
2018-11-29T10:11:20.517Z,9.02
2018-11-29T10:12:20.243Z,9.03
2018-11-29T10:13:20.507Z,9.04
2018-11-29T10:14:20.494Z,9.06
2018-11-29T10:15:20.475Z,9.13
2018-11-29T10:16:20.245Z,9.11
2018-11-29T10:17:20.291Z,9.14
2018-11-29T10:18:20.241Z,9.13
2018-11-29T10:19:20.217Z,9
2018-11-29T10:20:20.214Z,9.1
2018-11-29T10:21:20.453Z,9.03
2018-11-29T10:22:20.442Z,9.02
2018-11-29T10:23:19.955Z,9.18
2018-11-29T10:24:19.942Z,9.14
2018-11-29T10:25:20.435Z,9.11
2018-11-29T10:26:20.415Z,9.16
2018-11-29T10:27:19.916Z,9.25
2018-11-29T10:28:20.155Z,9.39
2018-11-29T10:29:20.177Z,9.32
2018-11-29T10:30:20.402Z,9.36
2018-11-29T10:31:20.426Z,9.4
2018-11-29T10:32:20.152Z,9.46
2018-11-29T10:33:19.876Z,9.36
2018-11-29T10:34:20.133Z,9.44
2018-11-29T10:35:20.139Z,9.48
2018-11-29T10:36:20.142Z,9.41
2018-11-29T10:37:20.114Z,9.47
2018-11-29T10:38:20.356Z,9.47
2018-11-29T10:39:20.353Z,9.56
2018-11-29T10:40:20.373Z,9.48
2018-11-29T10:41:20.369Z,9.44
2018-11-29T10:42:20.093Z,9.55
2018-11-29T10:43:20.322Z,9.51
2018-11-29T10:44:20.091Z,9.51
2018-11-29T10:45:20.096Z,9.48
2018-11-29T10:46:20.413Z,9.56
2018-11-29T10:47:20.305Z,9.61
2018-11-29T10:48:20.054Z,9.54
2018-11-29T10:49:20.294Z,9.55
2018-11-29T10:50:20.306Z,9.64
2018-11-29T10:51:20.288Z,9.64
2018-11-29T10:52:20.296Z,9.66
2018-11-29T10:53:20.028Z,9.74
2018-11-29T10:54:21.706Z,9.84
2018-11-29T10:55:19.783Z,9.84
2018-11-29T10:56:20.275Z,9.91
2018-11-29T10:57:20.019Z,9.98
2018-11-29T10:58:20.004Z,9.95
2018-11-29T10:59:20.246Z,10.12
2018-11-29T11:00:20.002Z,10.13
2018-11-29T11:01:20.244Z,10.19
2018-11-29T11:02:20.223Z,10.19
2018-11-29T11:03:19.729Z,10.22
2018-11-29T11:04:20.225Z,10.25
2018-11-29T11:05:19.727Z,10.17
2018-11-29T11:06:19.716Z,10.31
2018-11-29T11:07:19.958Z,10.31
2018-11-29T11:08:20.604Z,10.4
2018-11-29T11:09:19.964Z,10.33
2018-11-29T11:10:19.967Z,10.33
2018-11-29T11:11:20.202Z,10.33
2018-11-29T11:12:23.313Z,10.31
2018-11-29T11:13:19.937Z,10.31
2018-11-29T11:14:19.930Z,10.34
2018-11-29T11:15:20.196Z,10.34
2018-11-29T11:16:20.172Z,10.38
2018-11-29T11:17:20.191Z,10.37
2018-11-29T11:18:20.179Z,10.44
2018-11-29T11:19:19.922Z,10.51
2018-11-29T11:20:20.005Z,10.59
2018-11-29T11:21:19.891Z,10.57
2018-11-29T11:22:19.667Z,10.61
2018-11-29T11:23:19.916Z,10.63
2018-11-29T11:24:20.150Z,10.59
2018-11-29T11:25:19.661Z,10.54
2018-11-29T11:26:19.637Z,10.6
2018-11-29T11:27:20.123Z,10.61
2018-11-29T11:28:19.873Z,10.54
2018-11-29T11:29:19.872Z,10.44
2018-11-29T11:30:20.249Z,10.48
2018-11-29T11:31:19.867Z,10.4
2018-11-29T11:32:20.131Z,10.42
2018-11-29T11:33:19.880Z,10.42
2018-11-29T11:34:19.860Z,10.44
2018-11-29T11:35:19.868Z,10.46
2018-11-29T11:36:19.857Z,10.44
2018-11-29T11:37:19.837Z,10.35
2018-11-29T11:38:20.083Z,10.34
2018-11-29T11:39:19.824Z,10.41
2018-11-29T11:40:19.613Z,10.38
2018-11-29T11:41:19.806Z,10.38
2018-11-29T11:42:20.140Z,10.49
2018-11-29T11:43:19.804Z,10.49
2018-11-29T11:44:20.062Z,10.54
2018-11-29T11:45:19.566Z,10.49
2018-11-29T11:46:20.043Z,10.59
2018-11-29T11:47:20.037Z,10.63
2018-11-29T11:48:20.032Z,10.57
2018-11-29T11:49:20.030Z,10.6
2018-11-29T11:50:20.059Z,10.63
2018-11-29T11:51:20.031Z,10.59
2018-11-29T11:52:19.545Z,10.61
2018-11-29T11:53:19.517Z,10.61
2018-11-29T11:54:20.003Z,10.57
2018-11-29T11:55:29.879Z,10.61
2018-11-29T11:56:20.024Z,10.57
2018-11-29T11:57:20.025Z,10.57
2018-11-29T11:58:19.827Z,10.63
2018-11-29T11:59:19.997Z,10.6
2018-11-29T12:00:19.759Z,10.53
2018-11-29T12:01:19.998Z,10.56
2018-11-29T12:02:19.486Z,10.6
2018-11-29T12:03:19.999Z,10.53
2018-11-29T12:04:19.724Z,10.61
2018-11-29T12:05:19.990Z,10.54
2018-11-29T12:06:19.979Z,10.61
2018-11-29T12:07:19.948Z,10.61
2018-11-29T12:08:19.942Z,10.61
2018-11-29T12:09:19.447Z,10.61
2018-11-29T12:10:19.950Z,10.64
2018-11-29T12:11:19.703Z,10.54
2018-11-29T12:12:19.688Z,10.67
2018-11-29T12:13:19.677Z,10.69
2018-11-29T12:14:19.924Z,10.69
2018-11-29T12:15:19.686Z,10.59
2018-11-29T12:16:19.914Z,10.75
2018-11-29T12:17:19.911Z,10.68
2018-11-29T12:18:19.513Z,10.74
2018-11-29T12:19:19.896Z,10.69
2018-11-29T12:20:19.412Z,10.64
2018-11-29T12:21:19.660Z,10.71
2018-11-29T12:22:19.908Z,10.71
2018-11-29T12:23:19.650Z,10.6
2018-11-29T12:24:19.654Z,10.57
2018-11-29T12:25:19.653Z,10.53
2018-11-29T12:26:19.378Z,10.54
2018-11-29T12:27:19.870Z,10.54
2018-11-29T12:28:19.613Z,10.46
2018-11-29T12:29:19.688Z,10.54
2018-11-29T12:30:19.869Z,10.6
2018-11-29T12:31:19.847Z,10.48
2018-11-29T12:32:19.848Z,10.49
2018-11-29T12:33:19.585Z,10.57
2018-11-29T12:34:19.336Z,10.53
2018-11-29T12:35:20.147Z,10.51
2018-11-29T12:36:19.822Z,10.59
2018-11-29T12:37:19.820Z,10.54
2018-11-29T12:38:19.568Z,10.48
2018-11-29T12:39:19.563Z,10.54
2018-11-29T12:40:19.814Z,10.49
2018-11-29T12:41:19.319Z,10.51
2018-11-29T12:42:19.807Z,10.42
2018-11-29T12:43:19.573Z,10.41
2018-11-29T12:44:19.538Z,10.42
2018-11-29T12:45:19.565Z,10.33
2018-11-29T12:46:19.539Z,10.33
2018-11-29T12:47:19.540Z,10.35
2018-11-29T12:48:19.539Z,10.31
2018-11-29T12:49:19.539Z,10.28
2018-11-29T12:50:19.797Z,10.28
2018-11-29T12:51:19.512Z,10.26
2018-11-29T12:52:19.505Z,10.19
2018-11-29T12:53:19.488Z,10.22
2018-11-29T12:54:19.492Z,10.19
2018-11-29T12:55:20.307Z,10.09
2018-11-29T12:56:19.730Z,10.23
2018-11-29T12:57:19.235Z,10.09
2018-11-29T12:58:19.716Z,10.2
2018-11-29T12:59:19.722Z,10.12
2018-11-29T13:00:19.462Z,10.16
2018-11-29T13:01:19.710Z,10.1
2018-11-29T13:02:19.701Z,10.15
2018-11-29T13:03:19.197Z,10.13
2018-11-29T13:04:19.680Z,10.19
2018-11-29T13:05:19.185Z,10.1
2018-11-29T13:06:19.680Z,10.15
2018-11-29T13:07:19.180Z,10.2
2018-11-29T13:08:19.687Z,10.12
2018-11-29T13:09:19.649Z,10.17
2018-11-29T13:10:19.428Z,10.16
2018-11-29T13:11:19.150Z,10.16
2018-11-29T13:12:19.397Z,10.2
2018-11-29T13:13:19.381Z,10.17
2018-11-29T13:14:19.986Z,10.17
2018-11-29T13:15:19.925Z,10.09
2018-11-29T13:16:19.376Z,10.16